Time;durP1;ratioP1;P1;durP2;ratioP2;P2;SDS_P1;SDS_P2;PMS_P1;PMS_P2;Temp;Humidity;BMP_temperature;BMP_pressure;BME280_temperature;BME280_humidity;BME280_pressure;Samples;Min_cycle;Max_cycle;Signal;HPM_P1;HPM_P2
2022/06/01 00:01:51;;;;;;;2.27;1.65;;;;;;;16.25;57.38;96274.39;1778391;80;21010;-82
2022/06/01 00:04:19;;;;;;;3.60;1.50;;;;;;;16.27;56.99;96271.06;1787977;80;21380;-82
2022/06/01 00:06:45;;;;;;;3.42;1.60;;;;;;;16.32;57.25;96272.52;1774174;79;20994;-82
2022/06/01 00:09:10;;;;;;;1.17;1.00;;;;;;;16.36;56.96;96270.24;1780502;80;21513;-83
2022/06/01 00:11:36;;;;;;;2.52;1.75;;;;;;;16.38;56.10;96259.81;1778488;80;21069;-82
2022/06/01 00:14:03;;;;;;;1.60;1.40;;;;;;;16.45;56.60;96259.75;1776265;80;20987;-82
2022/06/01 00:16:28;;;;;;;1.80;1.40;;;;;;;16.47;57.01;96264.27;1781471;80;21011;-82
2022/06/01 00:18:54;;;;;;;2.17;1.37;;;;;;;16.50;56.58;96266.44;1784855;80;20935;-83
2022/06/01 00:21:20;;;;;;;1.95;1.40;;;;;;;16.53;56.77;96251.56;1777836;80;20959;-82
2022/06/01 00:23:45;;;;;;;6.35;1.92;;;;;;;16.53;56.38;96246.31;1777726;80;21432;-83
2022/06/01 00:26:11;;;;;;;3.33;1.62;;;;;;;16.56;56.30;96241.13;1786100;80;21040;-82
2022/06/01 00:28:37;;;;;;;2.70;2.00;;;;;;;16.59;56.38;96236.75;1781651;80;21051;-82
2022/06/01 00:31:03;;;;;;;2.35;1.52;;;;;;;16.60;56.06;96239.17;1781891;80;21015;-82
2022/06/01 00:33:30;;;;;;;3.12;1.72;;;;;;;16.63;56.29;96244.48;1779137;80;21089;-82
2022/06/01 00:35:56;;;;;;;2.65;1.72;;;;;;;16.63;56.00;96241.35;1763434;80;21414;-82
2022/06/01 00:38:22;;;;;;;2.15;1.65;;;;;;;16.63;56.29;96243.97;1789935;80;21373;-81
2022/06/01 00:40:48;;;;;;;4.12;2.17;;;;;;;16.65;56.38;96242.44;1770673;80;20990;-82
2022/06/01 00:43:24;;;;;;;3.45;2.10;;;;;;;16.64;56.26;96242.15;1780950;80;21057;-82
2022/06/01 00:45:50;;;;;;;2.87;1.87;;;;;;;16.65;56.11;96247.69;1782342;80;20927;-82
2022/06/01 00:48:18;;;;;;;2.45;1.92;;;;;;;16.67;56.46;96249.09;1780736;80;21316;-82
2022/06/01 00:50:44;;;;;;;3.80;2.00;;;;;;;16.66;56.45;96253.22;1756178;80;20998;-82
2022/06/01 00:53:17;;;;;;;4.05;2.27;;;;;;;16.66;56.65;96251.91;1771563;80;21286;-82
2022/06/01 00:55:47;;;;;;;3.90;1.90;;;;;;;16.65;56.66;96247.69;1760414;80;20989;-82
2022/06/01 00:58:20;;;;;;;2.72;2.10;;;;;;;16.66;56.74;96244.83;1783552;80;21031;-82
2022/06/01 01:00:48;;;;;;;2.50;2.10;;;;;;;16.67;56.71;96250.40;1774792;80;21008;-82
2022/06/01 01:03:14;;;;;;;2.50;1.90;;;;;;;16.67;57.12;96246.98;1779048;80;21093;-82
2022/06/01 01:05:43;;;;;;;2.20;1.67;;;;;;;16.65;56.91;96250.30;1785010;80;21037;-82
2022/06/01 01:08:09;;;;;;;4.40;2.05;;;;;;;16.64;56.81;96260.00;1767327;80;21043;-82
2022/06/01 01:10:35;;;;;;;3.05;2.02;;;;;;;16.66;56.68;96258.47;1773918;80;21442;-82
2022/06/01 01:13:04;;;;;;;4.55;1.90;;;;;;;16.69;56.71;96256.22;1783503;80;21064;-82
2022/06/01 01:15:51;;;;;;;4.35;2.20;;;;;;;16.71;56.73;96252.86;1767172;80;20979;-82
2022/06/01 01:18:14;;;;;;;;;;;;;;;16.70;56.82;96251.26;1786925;80;20997;-82
2022/06/01 01:21:03;;;;;;;3.83;2.20;;;;;;;16.70;56.77;96254.39;1745808;81;20105;-83
2022/06/01 01:23:40;;;;;;;4.35;2.40;;;;;;;16.70;56.90;96253.08;1784313;80;20948;-82
2022/06/01 01:26:06;;;;;;;3.83;2.12;;;;;;;16.70;56.79;96253.08;1775934;80;20967;-82
2022/06/01 01:28:32;;;;;;;3.47;2.10;;;;;;;16.66;57.17;96260.58;1759954;80;20951;-82
2022/06/01 01:31:08;;;;;;;3.72;2.08;;;;;;;16.62;57.21;96280.41;1744896;81;21448;-82
2022/06/01 01:33:33;;;;;;;2.52;2.30;;;;;;;16.58;57.24;96281.05;1777277;80;20997;-82
2022/06/01 01:36:04;;;;;;;3.30;2.10;;;;;;;16.54;57.28;96277.28;1776899;79;21045;-83
2022/06/01 01:39:09;;;;;;;2.72;2.15;;;;;;;16.50;57.44;96287.42;1782332;80;21003;-83
2022/06/01 01:41:48;;;;;;;2.77;2.30;;;;;;;16.48;57.53;96298.64;1781252;80;20977;-83
2022/06/01 01:44:26;;;;;;;5.03;2.50;;;;;;;16.42;57.67;96311.30;1778599;80;21015;-83
2022/06/01 01:46:52;;;;;;;3.45;2.33;;;;;;;16.33;57.96;96325.75;1782958;80;20977;-83
2022/06/01 01:49:21;;;;;;;4.28;2.90;;;;;;;16.21;57.95;96333.53;1777314;80;21057;-83
2022/06/01 01:51:48;;;;;;;4.65;3.15;;;;;;;16.14;58.09;96340.67;1777929;80;21007;-83
2022/06/01 01:54:51;;;;;;;3.65;2.77;;;;;;;16.09;58.23;96350.98;1771152;80;21432;-83
2022/06/01 01:57:32;;;;;;;4.97;2.90;;;;;;;16.03;58.40;96336.94;1781658;80;20979;-82
2022/06/01 02:00:06;;;;;;;5.95;2.67;;;;;;;15.93;59.59;96334.00;1779941;80;20973;-83
2022/06/01 02:03:22;;;;;;;5.00;2.77;;;;;;;15.84;60.24;96336.63;1767209;80;20952;-82
2022/06/01 02:06:08;;;;;;;3.67;2.50;;;;;;;15.77;60.89;96339.28;1779381;80;20970;-82
2022/06/01 02:09:09;;;;;;;2.95;2.58;;;;;;;15.69;61.51;96347.43;1766543;80;21013;-82
2022/06/01 02:14:45;;;;;;;3.22;2.35;;;;;;;15.54;62.82;96343.79;1751245;80;21026;-82
2022/06/01 02:17:37;;;;;;;3.45;2.50;;;;;;;15.51;62.38;96340.80;1767502;80;21007;-82
2022/06/01 02:20:13;;;;;;;4.47;3.12;;;;;;;15.49;62.90;96344.95;1786689;80;21102;-82
2022/06/01 02:22:39;;;;;;;3.98;2.95;;;;;;;15.46;62.66;96346.69;1765585;80;21346;-82
2022/06/01 02:25:09;;;;;;;4.15;2.90;;;;;;;15.41;62.48;96353.55;1787623;80;20938;-82
2022/06/01 02:27:36;;;;;;;5.47;3.67;;;;;;;15.35;62.66;96357.03;1776726;80;21383;-82
2022/06/01 02:30:13;;;;;;;6.60;3.80;;;;;;;15.25;62.50;96364.03;1777574;80;20970;-81
2022/06/01 02:32:39;;;;;;;5.78;3.47;;;;;;;15.20;63.43;96361.25;1769713;80;20999;-82
2022/06/01 02:35:06;;;;;;;4.20;3.60;;;;;;;15.14;63.44;96363.41;1780872;80;20932;-81
2022/06/01 02:37:32;;;;;;;8.23;3.98;;;;;;;15.10;64.03;96378.70;1766561;80;21074;-82
2022/06/01 02:39:58;;;;;;;5.72;3.30;;;;;;;15.04;63.96;96376.94;1789009;80;21055;-82
2022/06/01 02:42:28;;;;;;;6.37;3.20;;;;;;;15.03;64.25;96369.30;1782015;80;21411;-81
2022/06/01 02:44:58;;;;;;;6.28;2.80;;;;;;;15.03;64.97;96379.27;1784954;80;21411;-82
2022/06/01 02:47:26;;;;;;;5.00;3.12;;;;;;;15.00;65.43;96375.25;1784490;80;20974;-81
2022/06/01 02:49:52;;;;;;;4.05;3.22;;;;;;;14.96;65.71;96387.63;1769290;80;20977;-81
2022/06/01 02:52:18;;;;;;;6.05;3.92;;;;;;;14.90;65.96;96389.78;1781523;80;20967;-81
2022/06/01 02:54:44;;;;;;;5.70;4.30;;;;;;;14.83;65.85;96397.67;1766524;80;20979;-81
2022/06/01 02:57:09;;;;;;;9.33;6.67;;;;;;;14.79;66.05;96396.97;1775190;80;20955;-81
2022/06/01 02:59:36;;;;;;;7.75;6.20;;;;;;;14.72;66.41;96403.55;1779889;80;21337;-81
2022/06/01 03:02:03;;;;;;;10.05;6.00;;;;;;;14.64;66.69;96408.98;1786254;80;20961;-81
2022/06/01 03:04:29;;;;;;;7.15;5.80;;;;;;;14.61;66.79;96402.36;1782229;80;21053;-81
2022/06/01 03:06:55;;;;;;;6.55;5.47;;;;;;;14.63;67.26;96402.95;1783235;80;21038;-81
2022/06/01 03:09:21;;;;;;;6.20;5.60;;;;;;;14.66;67.56;96390.00;1783358;80;21049;-81
2022/06/01 03:11:46;;;;;;;7.25;5.60;;;;;;;14.64;67.83;96391.52;1772517;80;21066;-81
2022/06/01 03:14:12;;;;;;;6.55;5.50;;;;;;;14.60;67.95;96371.99;1787277;80;21064;-82
2022/06/01 03:16:38;;;;;;;7.45;5.78;;;;;;;14.59;68.29;96373.52;1776065;80;21054;-81
2022/06/01 03:19:05;;;;;;;8.20;5.83;;;;;;;14.55;68.55;96380.97;1786576;80;21351;-81
2022/06/01 03:21:30;;;;;;;7.92;6.15;;;;;;;14.56;68.99;96379.96;1777326;80;21026;-82
2022/06/01 03:23:56;;;;;;;7.33;5.33;;;;;;;14.56;69.07;96376.55;1782110;80;21084;-82
2022/06/01 03:26:23;;;;;;;6.53;5.50;;;;;;;14.57;69.17;96379.45;1781861;80;21409;-82
2022/06/01 03:28:48;;;;;;;5.33;4.67;;;;;;;14.58;69.24;96363.56;1787929;80;21004;-82
2022/06/01 03:31:14;;;;;;;6.42;5.62;;;;;;;14.57;69.48;96362.45;1769464;80;21297;-81
2022/06/01 03:33:40;;;;;;;7.83;5.10;;;;;;;14.56;69.84;96377.34;1774972;80;21050;-82
2022/06/01 03:36:07;;;;;;;6.05;5.05;;;;;;;14.55;69.98;96362.67;1771032;80;21008;-82
2022/06/01 03:38:33;;;;;;;8.83;5.12;;;;;;;14.53;70.37;96372.53;1773802;80;20979;-82
2022/06/01 03:40:59;;;;;;;6.95;5.08;;;;;;;14.48;70.41;96374.97;1787513;80;21341;-82
2022/06/01 03:43:25;;;;;;;6.12;4.72;;;;;;;14.48;70.67;96380.67;1786400;80;21085;-82
2022/06/01 03:45:58;;;;;;;6.08;4.80;;;;;;;14.46;70.80;96381.39;1766044;80;21473;-82
2022/06/01 03:48:28;;;;;;;6.95;4.87;;;;;;;14.46;70.99;96380.09;1784370;80;22034;-82
2022/06/01 03:50:55;;;;;;;5.12;4.20;;;;;;;14.46;71.05;96369.62;1781246;80;21005;-82
2022/06/01 03:53:23;;;;;;;6.67;4.15;;;;;;;14.44;71.36;96359.89;1779076;80;20978;-82
2022/06/01 03:55:49;;;;;;;5.40;3.98;;;;;;;14.42;71.65;96353.53;1754330;80;21349;-82
2022/06/01 03:58:17;;;;;;;4.58;4.10;;;;;;;14.39;71.76;96336.45;1772337;80;20948;-82
2022/06/01 04:00:43;;;;;;;4.78;3.47;;;;;;;14.40;71.86;96326.80;1785244;80;21361;-82
2022/06/01 04:03:27;;;;;;;5.70;3.75;;;;;;;14.43;72.05;96336.83;1780972;80;21043;-82
2022/06/01 04:05:54;;;;;;;4.67;3.20;;;;;;;14.42;72.43;96345.18;1781312;80;21076;-82
2022/06/01 04:08:20;;;;;;;4.92;3.70;;;;;;;14.41;72.71;96385.41;1782748;80;21005;-82
2022/06/01 04:10:46;;;;;;;5.03;3.80;;;;;;;14.40;73.02;96398.68;1765801;80;21000;-82
2022/06/01 04:13:13;;;;;;;4.10;3.00;;;;;;;14.36;73.13;96387.84;1779105;80;21018;-82
2022/06/01 04:15:39;;;;;;;3.37;2.77;;;;;;;14.32;72.92;96388.45;1780114;80;21107;-82
2022/06/01 04:18:05;;;;;;;5.65;3.25;;;;;;;14.30;73.06;96379.48;1780244;80;20970;-83
2022/06/01 04:20:30;;;;;;;3.83;2.90;;;;;;;14.29;73.30;96384.42;1775280;80;20973;-82
2022/06/01 04:22:58;;;;;;;3.60;2.60;;;;;;;14.30;73.26;96387.33;1786986;80;20892;-82
2022/06/01 04:25:23;;;;;;;4.37;2.80;;;;;;;14.32;73.55;96374.89;1747169;80;21070;-82
2022/06/01 04:27:49;;;;;;;4.70;3.60;;;;;;;14.33;73.94;96377.80;1789050;80;20973;-82
2022/06/01 04:30:16;;;;;;;5.60;3.65;;;;;;;14.28;73.76;96364.52;1780427;80;21325;-82
2022/06/01 04:32:44;;;;;;;3.92;3.22;;;;;;;14.22;73.84;96377.11;1779695;80;20960;-82
2022/06/01 04:35:12;;;;;;;7.35;3.85;;;;;;;14.22;74.05;96378.41;1781047;80;21086;-82
2022/06/01 04:38:12;;;;;;;4.62;3.12;;;;;;;14.28;74.32;96383.31;1775158;80;21003;-82
2022/06/01 04:40:26;;;;;;;3.77;2.90;;;;;;;14.33;74.43;96373.87;1773278;80;21007;-82
2022/06/01 04:42:52;;;;;;;3.33;2.60;;;;;;;14.37;74.52;96367.73;1782758;80;21368;-82
2022/06/01 04:45:19;;;;;;;3.52;2.65;;;;;;;14.38;74.91;96377.98;1774795;80;21113;-82
2022/06/01 04:47:45;;;;;;;3.47;2.25;;;;;;;14.34;74.94;96387.75;1781816;80;20971;-82
2022/06/01 04:50:11;;;;;;;2.80;2.05;;;;;;;14.32;75.17;96384.03;1784945;80;21411;-82
2022/06/01 04:52:36;;;;;;;2.90;1.77;;;;;;;14.29;75.11;96386.23;1776209;80;21076;-82
2022/06/01 04:55:03;;;;;;;2.47;1.80;;;;;;;14.26;75.09;96391.36;1776517;80;21037;-82
2022/06/01 04:57:29;;;;;;;2.87;1.92;;;;;;;14.26;75.43;96390.06;1782647;80;20977;-81
2022/06/01 04:59:55;;;;;;;3.35;2.42;;;;;;;14.26;75.84;96387.45;1781361;80;20985;-82
2022/06/01 05:02:21;;;;;;;2.72;1.70;;;;;;;14.23;75.78;96386.55;1773327;80;20938;-81
2022/06/01 05:04:46;;;;;;;2.22;2.00;;;;;;;14.22;76.20;96384.15;1769140;80;21362;-81
2022/06/01 05:07:12;;;;;;;4.20;1.80;;;;;;;14.23;76.42;96386.55;1764033;80;21034;-81
2022/06/01 05:09:38;;;;;;;2.42;2.22;;;;;;;14.27;76.68;96377.29;1777428;80;20971;-81
2022/06/01 05:12:07;;;;;;;2.22;1.32;;;;;;;14.30;76.67;96376.88;1748877;80;21050;-81
2022/06/01 05:14:33;;;;;;;3.10;2.80;;;;;;;14.35;76.93;96377.59;1764333;80;21082;-81
2022/06/01 05:17:00;;;;;;;7.10;6.45;;;;;;;14.39;76.99;96380.09;1757081;80;21347;-81
2022/06/01 05:19:27;;;;;;;2.87;2.05;;;;;;;14.41;76.67;96371.53;1758839;80;21022;-81
2022/06/01 05:21:53;;;;;;;2.90;2.10;;;;;;;14.43;77.20;96360.36;1757727;80;21003;-81
2022/06/01 05:24:19;;;;;;;1.80;1.60;;;;;;;14.44;78.08;96363.80;1759745;80;21324;-83
2022/06/01 05:26:44;;;;;;;3.42;1.40;;;;;;;14.48;77.74;96368.44;1784289;80;20976;-83
2022/06/01 05:29:10;;;;;;;2.27;1.10;;;;;;;14.53;78.25;96368.61;1759555;80;20975;-83
2022/06/01 05:31:36;;;;;;;1.37;1.05;;;;;;;14.57;77.93;96365.87;1778217;80;22332;-83
2022/06/01 05:34:01;;;;;;;2.90;1.40;;;;;;;14.63;78.25;96366.84;1783845;80;20908;-83
2022/06/01 05:36:29;;;;;;;1.30;1.10;;;;;;;14.67;78.34;96377.22;1779443;80;21050;-84
2022/06/01 05:38:55;;;;;;;1.22;0.90;;;;;;;14.69;78.16;96368.16;1782125;80;21339;-84
2022/06/01 05:41:20;;;;;;;1.70;1.10;;;;;;;14.69;78.00;96369.97;1783719;80;20897;-84
2022/06/01 05:43:47;;;;;;;1.87;1.00;;;;;;;14.69;78.27;96368.16;1775340;80;21009;-84
2022/06/01 05:46:13;;;;;;;1.40;1.05;;;;;;;14.69;78.57;96364.23;1779436;80;22337;-84
2022/06/01 05:48:38;;;;;;;2.92;1.12;;;;;;;14.74;78.89;96365.41;1784222;80;20973;-84
2022/06/01 05:51:04;;;;;;;2.52;1.30;;;;;;;14.75;79.19;96372.24;1780403;80;20952;-85
2022/06/01 05:53:30;;;;;;;1.45;1.10;;;;;;;14.74;79.25;96376.67;1784420;80;21001;-85
2022/06/01 05:55:55;;;;;;;1.45;1.10;;;;;;;14.76;79.03;96374.65;1774656;80;21070;-86
2022/06/01 05:58:25;;;;;;;2.35;1.50;;;;;;;14.78;79.13;96373.13;1772119;80;21012;-85
2022/06/01 06:00:52;;;;;;;2.33;1.45;;;;;;;14.79;79.36;96363.77;1775697;80;21019;-86
2022/06/01 06:03:20;;;;;;;1.85;1.55;;;;;;;14.78;79.55;96362.67;1780721;80;21029;-86
2022/06/01 06:08:30;;;;;;;2.30;1.50;;;;;;;14.71;79.79;96378.41;1779874;80;21073;-85
2022/06/01 06:10:55;;;;;;;5.72;3.95;;;;;;;14.70;79.44;96373.67;1777265;80;21073;-86
2022/06/01 06:13:22;;;;;;;2.60;1.37;;;;;;;14.72;79.49;96370.85;1785247;80;20940;-86
2022/06/01 06:15:49;;;;;;;2.00;1.40;;;;;;;14.73;79.52;96361.19;1777386;80;21066;-86
2022/06/01 06:18:15;;;;;;;3.22;1.37;;;;;;;14.67;79.61;96359.71;1769735;80;20952;-86
2022/06/01 06:20:42;;;;;;;2.98;1.50;;;;;;;14.66;79.95;96357.31;1783744;80;20897;-85
2022/06/01 06:23:09;;;;;;;3.27;1.80;;;;;;;14.64;79.90;96359.30;1785954;80;20956;-85
2022/06/01 06:25:34;;;;;;;2.15;1.50;;;;;;;14.63;80.00;96364.23;1781695;80;21351;-86
2022/06/01 06:28:00;;;;;;;1.85;1.47;;;;;;;14.61;80.28;96360.52;1778069;80;20908;-85
2022/06/01 06:30:26;;;;;;;2.08;1.70;;;;;;;14.60;80.42;96358.12;1781157;80;20983;-86
2022/06/01 06:32:52;;;;;;;2.20;1.80;;;;;;;14.60;80.65;96372.50;1784839;80;20984;-86
2022/06/01 06:35:18;;;;;;;2.30;2.10;;;;;;;14.58;80.67;96367.98;1782985;80;20960;-86
2022/06/01 06:37:43;;;;;;;2.58;2.10;;;;;;;14.57;80.59;96372.92;1782775;80;21019;-86
2022/06/01 06:40:11;;;;;;;3.45;2.00;;;;;;;14.58;80.66;96372.71;1756917;80;20947;-85
2022/06/01 06:42:37;;;;;;;2.15;1.60;;;;;;;14.62;80.97;96378.33;1780595;80;20984;-85
2022/06/01 06:45:03;;;;;;;2.50;1.75;;;;;;;14.64;81.04;96386.76;1780182;80;21381;-86
2022/06/01 06:47:32;;;;;;;3.15;1.85;;;;;;;14.66;80.87;96388.19;1782720;80;20948;-86
2022/06/01 06:50:00;;;;;;;3.52;2.10;;;;;;;14.66;80.79;96379.53;1781802;80;20985;-85
2022/06/01 06:52:26;;;;;;;2.15;1.95;;;;;;;14.67;81.25;96381.14;1768273;80;21030;-86
2022/06/01 06:54:53;;;;;;;2.52;1.80;;;;;;;14.71;81.22;96377.89;1776714;80;20999;-85
2022/06/01 06:57:18;;;;;;;3.35;2.83;;;;;;;14.81;81.52;96380.08;1762168;80;20940;-85
2022/06/01 06:59:44;;;;;;;2.50;1.92;;;;;;;14.89;81.68;96375.91;1755543;80;20920;-86
2022/06/01 07:02:10;;;;;;;1.65;1.52;;;;;;;15.02;81.80;96380.27;1771579;80;20972;-86
2022/06/01 07:04:36;;;;;;;2.90;2.20;;;;;;;15.17;81.91;96374.77;1777068;80;20968;-85
2022/06/01 07:07:03;;;;;;;3.27;2.30;;;;;;;15.33;82.10;96373.46;1777632;80;20944;-85
2022/06/01 07:09:28;;;;;;;3.60;2.33;;;;;;;15.50;81.94;96372.73;1777653;80;20959;-85
2022/06/01 07:11:55;;;;;;;5.12;3.33;;;;;;;15.66;81.28;96375.88;1771767;80;21004;-86
2022/06/01 07:14:21;;;;;;;4.22;2.90;;;;;;;15.76;80.42;96378.80;1748767;81;21012;-86
2022/06/01 07:16:46;;;;;;;2.40;2.17;;;;;;;15.76;80.29;96386.15;1755160;81;21941;-85
2022/06/01 07:19:12;;;;;;;3.15;2.40;;;;;;;15.79;80.40;96388.37;1767749;80;21304;-85
2022/06/01 07:21:39;;;;;;;3.10;1.77;;;;;;;15.79;79.36;96386.25;1758863;80;20955;-86
2022/06/01 07:24:05;;;;;;;2.35;1.67;;;;;;;15.79;78.62;96387.56;1743679;81;20977;-85
2022/06/01 07:26:36;;;;;;;3.98;1.80;;;;;;;15.79;79.36;96387.56;1742715;81;21332;-83
2022/06/01 07:29:03;;;;;;;2.80;1.80;;;;;;;15.88;79.32;96393.61;1754416;81;20992;-85
2022/06/01 07:31:29;;;;;;;2.45;1.90;;;;;;;15.98;79.13;96399.69;1768056;81;20937;-85
2022/06/01 07:33:55;;;;;;;3.00;1.60;;;;;;;16.08;79.64;96396.05;1769957;80;20999;-85
2022/06/01 07:36:21;;;;;;;2.87;1.92;;;;;;;16.20;79.25;96400.09;1744474;81;21479;-85
2022/06/01 07:44:27;;;;;;;2.33;1.95;;;;;;;16.34;77.51;96407.32;1770858;81;21011;-85
2022/06/01 07:46:52;;;;;;;2.35;1.50;;;;;;;16.42;77.71;96403.09;1757535;80;21010;-85
2022/06/01 07:49:18;;;;;;;2.65;2.42;;;;;;;16.54;77.31;96408.42;1756099;80;21067;-85
2022/06/01 07:51:45;;;;;;;2.60;2.40;;;;;;;16.59;76.74;96411.19;1748471;81;21423;-84
2022/06/01 07:54:11;;;;;;;2.95;2.55;;;;;;;16.61;76.70;96412.59;1769569;81;21063;-84
2022/06/01 07:56:37;;;;;;;2.95;2.22;;;;;;;16.68;77.36;96409.41;1761006;80;21040;-85
2022/06/01 07:59:03;;;;;;;2.75;1.67;;;;;;;16.82;76.84;96418.45;1758002;80;21386;-84
2022/06/01 08:01:29;;;;;;;1.75;1.65;;;;;;;16.98;77.18;96415.22;1764173;80;21063;-84
2022/06/01 08:03:56;;;;;;;3.12;1.90;;;;;;;17.15;77.16;96415.41;1770867;80;20981;-84
2022/06/01 08:06:25;;;;;;;2.47;1.90;;;;;;;17.34;76.16;96411.20;1762356;80;20991;-85
2022/06/01 08:08:51;;;;;;;3.35;2.20;;;;;;;17.55;75.20;96416.45;1764760;81;20961;-84
2022/06/01 08:11:17;;;;;;;2.12;1.82;;;;;;;17.70;75.20;96418.18;1759796;80;20990;-84
2022/06/01 08:13:43;;;;;;;3.40;1.90;;;;;;;17.85;73.62;96418.27;1761472;81;20988;-84
2022/06/01 08:16:08;;;;;;;3.25;1.77;;;;;;;17.95;73.40;96423.27;1788946;80;21010;-84
2022/06/01 08:18:34;;;;;;;2.98;1.70;;;;;;;18.03;73.34;96426.06;1788658;80;21365;-84
2022/06/01 08:21:00;;;;;;;3.80;2.10;;;;;;;18.11;73.39;96428.88;1766792;80;20944;-83
2022/06/01 08:23:29;;;;;;;2.98;1.95;;;;;;;18.30;72.71;96436.95;1773730;80;20997;-84
2022/06/01 08:25:55;;;;;;;2.85;2.40;;;;;;;18.47;72.01;96432.59;1776941;80;21339;-84
2022/06/01 08:28:21;;;;;;;1.52;1.27;;;;;;;18.58;72.77;96435.74;1780105;80;20987;-83
2022/06/01 08:30:47;;;;;;;2.17;1.40;;;;;;;18.53;70.12;96436.13;1781361;80;20974;-84
2022/06/01 08:33:13;;;;;;;2.75;1.60;;;;;;;18.49;70.40;96435.00;1786564;80;22056;-83
2022/06/01 08:35:43;;;;;;;1.90;1.35;;;;;;;18.42;69.98;96439.59;1787482;80;20956;-83
2022/06/01 08:38:09;;;;;;;1.60;1.17;;;;;;;18.43;70.11;96438.55;1779606;80;20941;-83
2022/06/01 08:40:49;;;;;;;2.37;1.40;;;;;;;18.36;69.61;96443.11;1787300;80;20973;-83
2022/06/01 08:43:16;;;;;;;1.42;1.20;;;;;;;18.18;69.34;96435.63;1763204;80;21403;-83
2022/06/01 08:45:45;;;;;;;1.15;0.98;;;;;;;18.15;69.70;96436.08;1771116;80;21011;-82
2022/06/01 08:48:15;;;;;;;1.65;1.12;;;;;;;18.47;69.30;96436.55;1786689;80;20975;-83
2022/06/01 08:50:41;;;;;;;1.60;1.30;;;;;;;18.75;70.15;96437.18;1782921;80;21397;-83
2022/06/01 08:53:08;;;;;;;1.55;1.15;;;;;;;19.13;69.74;96435.82;1787305;80;21050;-82
2022/06/01 08:55:55;;;;;;;2.10;1.50;;;;;;;19.41;68.06;96437.67;1772694;80;21024;-82
2022/06/01 08:58:38;;;;;;;1.62;1.15;;;;;;;19.63;67.91;96435.98;1783303;80;21039;-82
2022/06/01 09:01:21;;;;;;;2.75;1.10;;;;;;;19.75;67.61;96441.20;1742065;80;20976;-82
2022/06/01 09:04:15;;;;;;;3.85;1.27;;;;;;;19.81;65.59;96434.16;1771706;80;21003;-82
2022/06/01 09:06:46;;;;;;;1.57;1.30;;;;;;;19.94;65.98;96436.50;1780006;80;21063;-82
2022/06/01 09:09:24;;;;;;;3.20;1.90;;;;;;;20.16;65.12;96438.69;1734260;81;21414;-82
2022/06/01 09:11:50;;;;;;;1.45;1.15;;;;;;;20.25;63.26;96437.78;1767382;80;21035;-82
2022/06/01 09:14:27;;;;;;;2.58;1.65;;;;;;;20.19;64.24;96442.70;1760439;80;21465;-82
2022/06/01 09:16:55;;;;;;;2.08;1.30;;;;;;;20.31;63.99;96445.52;1778272;80;21418;-83
2022/06/01 09:19:25;;;;;;;1.42;1.32;;;;;;;20.39;62.64;96446.44;1765355;79;20962;-82
2022/06/01 09:24:50;;;;;;;1.92;1.30;;;;;;;20.46;63.65;96446.81;1753328;80;21041;-82
2022/06/01 09:27:16;;;;;;;1.55;1.22;;;;;;;20.56;61.46;96456.20;1777880;80;21426;-83
2022/06/01 09:29:52;;;;;;;2.55;1.27;;;;;;;20.59;60.26;96451.75;1756699;80;21015;-82
2022/06/01 09:32:31;;;;;;;1.27;1.00;;;;;;;20.64;60.38;96454.45;1776440;80;20955;-82
2022/06/01 09:35:11;;;;;;;2.30;1.20;;;;;;;20.66;62.44;96455.01;1767091;80;21406;-81
2022/06/01 09:37:43;;;;;;;2.45;1.35;;;;;;;20.83;61.03;96462.92;1789879;80;20948;-82
2022/06/01 09:40:26;;;;;;;2.60;1.30;;;;;;;20.90;58.99;96459.04;1775298;80;20978;-83
2022/06/01 09:42:53;;;;;;;2.22;1.60;;;;;;;20.86;57.79;96461.11;1782869;80;20992;-82
2022/06/01 09:45:47;;;;;;;1.10;1.00;;;;;;;20.90;58.45;96460.36;1761841;79;21033;-82
2022/06/01 09:48:23;;;;;;;2.25;1.47;;;;;;;21.02;58.48;96458.13;1785406;79;21000;-82
2022/06/01 09:51:19;;;;;;;5.72;4.03;;;;;;;21.15;57.51;96458.57;1781535;80;20964;-82
2022/06/01 09:53:52;;;;;;;4.83;2.30;;;;;;;21.25;57.74;96455.26;1772868;79;21377;-82
2022/06/01 09:56:32;;;;;;;2.98;1.50;;;;;;;21.37;56.11;96463.06;1787884;80;20948;-82
2022/06/01 10:07:28;;;;;;;2.30;1.10;;;;;;;21.45;54.97;96463.92;1789492;79;20953;-82
2022/06/01 10:10:02;;;;;;;4.03;1.80;;;;;;;21.19;53.11;96456.23;1773521;80;21314;-83
2022/06/01 10:12:41;;;;;;;7.22;3.92;;;;;;;21.25;54.56;96453.41;1791060;80;21012;-82
2022/06/01 10:15:31;;;;;;;6.58;4.42;;;;;;;21.45;54.67;96463.41;1774612;80;21503;-82
2022/06/01 10:18:05;;;;;;;3.80;2.58;;;;;;;21.60;51.86;96462.77;1764990;80;21395;-82
2022/06/01 10:20:38;;;;;;;3.22;2.25;;;;;;;21.69;52.79;96464.45;1785198;80;21016;-81
2022/06/01 10:23:29;;;;;;;3.58;1.90;;;;;;;21.65;52.92;96462.84;1788863;80;21035;-82
2022/06/01 10:26:02;;;;;;;4.67;2.70;;;;;;;21.73;53.21;96462.38;1786918;79;21027;-82
2022/06/01 10:28:39;;;;;;;3.62;2.12;;;;;;;21.93;53.57;96463.60;1775578;80;21013;-82
2022/06/01 10:31:04;;;;;;;2.15;1.15;;;;;;;21.70;51.46;96472.66;1758441;80;21029;-82
2022/06/01 10:33:35;;;;;;;1.52;1.22;;;;;;;21.37;49.25;96470.99;1778367;80;21054;-81
2022/06/01 10:36:16;;;;;;;2.55;1.30;;;;;;;21.07;49.85;96474.84;1769202;80;21040;-81
2022/06/01 10:38:52;;;;;;;3.05;1.37;;;;;;;20.76;50.63;96477.59;1783386;80;20972;-81
2022/06/01 10:41:31;;;;;;;2.15;1.27;;;;;;;20.64;51.03;96474.26;1785847;80;21367;-82
2022/06/01 10:44:16;;;;;;;2.15;1.95;;;;;;;20.53;51.14;96465.94;1778049;80;20976;-82
2022/06/01 10:46:59;;;;;;;1.87;1.10;;;;;;;20.58;51.98;96469.95;1760106;79;21076;-82
2022/06/01 10:49:48;;;;;;;3.55;1.70;;;;;;;20.88;53.19;96478.82;1776917;80;20983;-81
2022/06/01 10:52:31;;;;;;;3.25;1.55;;;;;;;21.27;53.40;96474.30;1779538;80;21038;-82
2022/06/01 10:55:26;;;;;;;1.67;1.02;;;;;;;21.60;51.56;96473.34;1784222;79;20952;-82
2022/06/01 10:57:52;;;;;;;1.50;1.10;;;;;;;21.81;49.90;96475.69;1757769;79;21405;-82
2022/06/01 11:00:22;;;;;;;3.08;1.50;;;;;;;21.98;51.04;96466.31;1757194;80;20979;-82
2022/06/01 11:03:04;;;;;;;2.12;1.27;;;;;;;21.91;50.54;96475.76;1787174;80;21039;-82
2022/06/01 11:06:00;;;;;;;3.72;1.60;;;;;;;21.74;50.11;96479.04;1777774;79;20956;-82
2022/06/01 11:08:38;;;;;;;2.95;1.67;;;;;;;21.88;50.62;96465.69;1791570;80;20977;-82
2022/06/01 11:11:09;;;;;;;1.90;1.00;;;;;;;22.14;49.60;96476.00;1789390;80;20938;-82
2022/06/01 11:14:07;;;;;;;1.75;1.00;;;;;;;22.24;48.21;96469.97;1782743;80;21019;-82
2022/06/01 11:16:57;;;;;;;2.75;0.98;;;;;;;22.28;47.73;96460.47;1785844;79;21553;-81
2022/06/01 11:19:37;;;;;;;1.37;1.00;;;;;;;22.37;48.13;96462.41;1768931;80;21087;-81
2022/06/01 11:22:12;;;;;;;2.17;1.10;;;;;;;22.46;46.95;96470.69;1781039;80;20954;-81
2022/06/01 11:24:47;;;;;;;1.57;1.20;;;;;;;22.55;47.32;96464.37;1783447;79;20983;-81
2022/06/01 11:27:38;;;;;;;4.12;1.55;;;;;;;22.71;47.10;96468.70;1750159;79;21065;-81
2022/06/01 11:30:09;;;;;;;3.37;1.55;;;;;;;22.81;46.93;96465.33;1764941;79;21361;-83
2022/06/01 11:32:49;;;;;;;1.65;1.02;;;;;;;22.85;46.76;96467.23;1762995;79;20995;-82
2022/06/01 11:35:40;;;;;;;2.05;0.90;;;;;;;22.92;46.17;96473.08;1771935;79;21385;-82
2022/06/01 11:38:17;;;;;;;2.05;1.00;;;;;;;23.04;44.91;96468.38;1770538;79;20999;-82
2022/06/01 11:41:12;;;;;;;3.00;0.90;;;;;;;23.17;44.53;96460.48;1773372;80;20956;-82
2022/06/01 11:43:47;;;;;;;5.08;1.92;;;;;;;23.29;44.97;96465.57;1780029;79;20975;-82
2022/06/01 11:46:25;;;;;;;7.35;3.92;;;;;;;23.56;44.38;96469.34;1750281;79;21082;-81
2022/06/01 11:48:59;;;;;;;2.02;1.42;;;;;;;23.69;42.87;96469.41;1786338;79;21018;-82
2022/06/01 11:51:45;;;;;;;8.95;4.33;;;;;;;23.71;40.78;96476.04;1768642;80;20987;-82
2022/06/01 11:54:16;;;;;;;3.75;1.52;;;;;;;23.64;40.48;96475.51;1758157;80;21072;-81
2022/06/01 11:57:20;;;;;;;7.03;3.25;;;;;;;23.67;39.76;96468.34;1731982;79;21404;-82
2022/06/01 11:59:54;;;;;;;5.72;3.65;;;;;;;23.81;39.74;96471.30;1783432;79;21047;-82
2022/06/01 12:02:50;;;;;;;3.83;2.37;;;;;;;23.88;39.53;96465.98;1758785;79;20989;-82
2022/06/01 12:05:33;;;;;;;5.90;1.62;;;;;;;23.93;39.87;96465.22;1764989;79;20957;-81
2022/06/01 12:08:10;;;;;;;1.65;1.00;;;;;;;23.83;38.64;96464.66;1767129;79;21055;-82
2022/06/01 12:10:58;;;;;;;1.32;0.95;;;;;;;23.91;38.01;96466.77;1740923;80;21027;-82
2022/06/01 12:13:39;;;;;;;1.55;0.72;;;;;;;23.88;37.69;96476.59;1756996;80;21003;-81
2022/06/01 12:16:26;;;;;;;1.57;0.80;;;;;;;23.81;38.32;96477.39;1768003;80;20964;-82